createdAt,value
2017-09-22T00:00:57.948Z,79.06
2017-09-22T00:01:57.932Z,78.97
2017-09-22T00:02:57.926Z,78.97
2017-09-22T00:03:57.917Z,79.06
2017-09-22T00:04:57.905Z,78.87
2017-09-22T00:05:58.173Z,78.49
2017-09-22T00:06:57.885Z,78.78
2017-09-22T00:07:57.871Z,78.97
2017-09-22T00:08:57.858Z,79.06
2017-09-22T00:09:57.844Z,79.06
2017-09-22T00:10:58.220Z,78.97
2017-09-22T00:11:57.821Z,78.97
2017-09-22T00:12:57.812Z,78.87
2017-09-22T00:13:57.802Z,78.87
2017-09-22T00:14:57.787Z,78.87
2017-09-22T00:15:57.774Z,79.64
2017-09-22T00:16:58.195Z,79.54
2017-09-22T00:17:57.753Z,79.54
2017-09-22T00:18:57.742Z,79.64
2017-09-22T00:19:57.732Z,79.25
2017-09-22T00:20:57.721Z,79.44
2017-09-22T00:21:57.713Z,79.35
2017-09-22T00:22:57.733Z,79.54
2017-09-22T00:23:57.687Z,79.73
2017-09-22T00:24:58.120Z,79.44
2017-09-22T00:25:57.666Z,79.54
2017-09-22T00:26:57.656Z,79.35
2017-09-22T00:27:57.643Z,79.35
2017-09-22T00:28:57.635Z,79.54
2017-09-22T00:29:57.618Z,79.25
2017-09-22T00:30:57.950Z,79.64
2017-09-22T00:31:57.598Z,79.64
2017-09-22T00:32:57.586Z,79.64
2017-09-22T00:33:57.570Z,79.25
2017-09-22T00:34:57.562Z,79.64
2017-09-22T00:35:57.552Z,79.54
2017-09-22T00:36:57.684Z,79.44
2017-09-22T00:37:57.537Z,79.25
2017-09-22T00:38:57.522Z,79.73
2017-09-22T00:39:57.508Z,79.44
2017-09-22T00:40:57.503Z,79.44
2017-09-22T00:41:57.484Z,79.54
2017-09-22T00:42:57.828Z,79.25
2017-09-22T00:43:57.464Z,79.64
2017-09-22T00:44:57.449Z,79.44
2017-09-22T00:45:57.459Z,79.54
2017-09-22T00:46:57.423Z,79.44
2017-09-22T00:47:57.437Z,79.35
2017-09-22T00:48:57.758Z,79.35
2017-09-22T00:49:57.391Z,79.44
2017-09-22T00:50:57.381Z,79.64
2017-09-22T00:51:57.376Z,79.54
2017-09-22T00:52:57.363Z,79.54
2017-09-22T00:53:57.350Z,79.54
2017-09-22T00:54:57.758Z,79.44
2017-09-22T00:55:57.324Z,79.44
2017-09-22T00:56:57.559Z,78.87
2017-09-22T00:57:57.305Z,78.97
2017-09-22T00:58:57.292Z,79.06
2017-09-22T00:59:57.284Z,79.16
2017-09-22T01:00:57.574Z,79.44
2017-09-22T01:01:57.255Z,79.64
2017-09-22T01:02:57.245Z,79.44
2017-09-22T01:03:57.232Z,79.35
2017-09-22T01:04:57.222Z,79.44
2017-09-22T01:05:57.209Z,79.54
2017-09-22T01:06:57.229Z,79.44
2017-09-22T01:07:57.189Z,79.44
2017-09-22T01:08:57.173Z,79.44
2017-09-22T01:09:57.522Z,79.54
2017-09-22T01:10:57.155Z,79.64
2017-09-22T01:11:57.140Z,79.50
2017-09-22T01:12:57.138Z,79.44
2017-09-22T01:13:57.125Z,79.41
2017-09-22T01:14:57.106Z,79.12
2017-09-22T01:15:57.484Z,79.31
2017-09-22T01:16:57.090Z,79.22
2017-09-22T01:17:57.071Z,79.31
2017-09-22T01:18:57.059Z,79.12
2017-09-22T01:19:57.048Z,79.41
2017-09-22T01:20:57.039Z,79.22
2017-09-22T01:21:57.061Z,79.02
2017-09-22T01:22:57.028Z,79.22
2017-09-22T01:23:57.003Z,79.41
2017-09-22T01:24:56.995Z,79.41
2017-09-22T01:25:57.204Z,79.31
2017-09-22T01:26:57.942Z,79.25
2017-09-22T01:27:56.958Z,79.22
2017-09-22T01:28:56.955Z,79.12
2017-09-22T01:29:56.948Z,79.22
2017-09-22T01:30:56.922Z,79.02
2017-09-22T01:31:56.946Z,79.22
2017-09-22T01:32:56.896Z,79.41
2017-09-22T01:33:56.887Z,79.02
2017-09-22T01:34:56.880Z,79.31
2017-09-22T01:35:56.907Z,79.60
2017-09-22T01:36:56.850Z,79.50
2017-09-22T01:37:56.853Z,79.60
2017-09-22T01:38:56.828Z,79.41
2017-09-22T01:39:56.826Z,79.25
2017-09-22T01:40:57.254Z,79.22
2017-09-22T01:41:56.796Z,79.41
2017-09-22T01:42:56.783Z,79.44
2017-09-22T01:43:56.769Z,79.22
2017-09-22T01:44:56.765Z,79.12
2017-09-22T01:45:56.746Z,79.41
2017-09-22T01:46:57.090Z,79.41
2017-09-22T01:47:56.725Z,79.12
2017-09-22T01:48:56.742Z,79.31
2017-09-22T01:49:56.704Z,79.12
2017-09-22T01:50:56.691Z,79.22
2017-09-22T01:51:56.691Z,79.12
2017-09-22T01:52:56.888Z,79.31
2017-09-22T01:53:56.656Z,79.22
2017-09-22T01:54:56.645Z,79.02
2017-09-22T01:55:56.637Z,79.22
2017-09-22T01:56:56.627Z,79.02
2017-09-22T01:57:56.606Z,79.22
2017-09-22T01:58:56.632Z,79.60
2017-09-22T01:59:56.581Z,79.22
2017-09-22T02:00:56.942Z,79.31
2017-09-22T02:01:56.560Z,79.31
2017-09-22T02:02:56.564Z,79.22
2017-09-22T02:03:56.542Z,79.22
2017-09-22T02:04:56.528Z,79.22
2017-09-22T02:05:56.514Z,79.22
2017-09-22T02:06:57.098Z,79.12
2017-09-22T02:07:56.489Z,79.50
2017-09-22T02:08:56.484Z,79.02
2017-09-22T02:09:56.467Z,79.22
2017-09-22T02:10:56.456Z,79.12
2017-09-22T02:11:56.453Z,79.22
2017-09-22T02:12:56.645Z,79.12
2017-09-22T02:13:56.426Z,79.31
2017-09-22T02:14:56.408Z,79.02
2017-09-22T02:15:56.408Z,79.60
2017-09-22T02:16:56.386Z,79.31
2017-09-22T02:17:56.375Z,79.41
2017-09-22T02:18:56.653Z,79.41
2017-09-22T02:19:56.353Z,79.79
2017-09-22T02:20:56.345Z,79.79
2017-09-22T02:21:56.326Z,79.02
2017-09-22T02:22:56.317Z,79.98
2017-09-22T02:23:56.309Z,79.60
2017-09-22T02:24:56.751Z,79.56
2017-09-22T02:25:56.285Z,79.79
2017-09-22T02:26:56.267Z,79.79
2017-09-22T02:27:56.267Z,79.69
2017-09-22T02:28:56.244Z,79.50
2017-09-22T02:29:56.237Z,79.50
2017-09-22T02:30:56.518Z,79.56
2017-09-22T02:31:56.222Z,79.60
2017-09-22T02:32:56.202Z,79.50
2017-09-22T02:33:56.207Z,79.88
2017-09-22T02:34:56.182Z,80.04
2017-09-22T02:35:56.161Z,79.85
2017-09-22T02:36:56.698Z,79.88
2017-09-22T02:37:56.138Z,79.79
2017-09-22T02:38:56.131Z,79.94
2017-09-22T02:39:56.113Z,80.13
2017-09-22T02:40:56.111Z,79.75
2017-09-22T02:41:56.095Z,79.65
2017-09-22T02:42:56.245Z,80.32
2017-09-22T02:43:56.076Z,80.04
2017-09-22T02:44:56.052Z,80.22
2017-09-22T02:45:56.038Z,80.13
2017-09-22T02:46:56.039Z,79.85
2017-09-22T02:47:56.338Z,79.85
2017-09-22T02:48:56.011Z,79.94
2017-09-22T02:49:55.993Z,79.94
2017-09-22T02:50:55.985Z,80.04
2017-09-22T02:51:55.970Z,80.13
2017-09-22T02:52:55.965Z,80.04
2017-09-22T02:53:55.979Z,79.85
2017-09-22T02:54:55.940Z,80.13
2017-09-22T02:55:55.925Z,80.22
2017-09-22T02:56:55.918Z,80.13
2017-09-22T02:57:55.904Z,80.22
2017-09-22T02:58:56.240Z,80.04
2017-09-22T02:59:55.877Z,80.22
2017-09-22T03:00:55.862Z,79.94
2017-09-22T03:01:55.868Z,79.56
2017-09-22T03:02:55.842Z,79.08
2017-09-22T03:03:55.831Z,79.27
2017-09-22T03:04:55.840Z,78.99
2017-09-22T03:05:55.809Z,79.65
2017-09-22T03:06:55.945Z,79.56
2017-09-22T03:07:55.783Z,79.46
2017-09-22T03:08:55.971Z,79.46
2017-09-22T03:09:55.766Z,79.85
2017-09-22T03:10:55.741Z,80.13
2017-09-22T03:11:55.731Z,79.36
2017-09-22T03:12:55.730Z,79.56
2017-09-22T03:13:55.706Z,79.36
2017-09-22T03:14:56.238Z,79.56
2017-09-22T03:15:55.683Z,79.46
2017-09-22T03:16:55.679Z,79.56
2017-09-22T03:17:55.670Z,79.65
2017-09-22T03:18:55.647Z,79.56
2017-09-22T03:19:55.635Z,79.46
2017-09-22T03:20:56.063Z,79.56
2017-09-22T03:21:55.611Z,79.56
2017-09-22T03:22:55.606Z,79.08
2017-09-22T03:23:55.599Z,79.75
2017-09-22T03:24:55.575Z,79.75
2017-09-22T03:25:55.565Z,79.65
2017-09-22T03:26:55.767Z,79.56
2017-09-22T03:27:55.538Z,80.22
2017-09-22T03:28:55.537Z,79.56
2017-09-22T03:29:55.513Z,79.56
2017-09-22T03:30:55.515Z,79.46
2017-09-22T03:31:55.490Z,80.13
2017-09-22T03:32:55.510Z,80.22
2017-09-22T03:33:55.731Z,79.94
2017-09-22T03:34:55.454Z,79.85
2017-09-22T03:35:55.456Z,79.56
2017-09-22T03:36:55.431Z,79.46
2017-09-22T03:37:55.425Z,79.65
2017-09-22T03:38:55.711Z,79.75
2017-09-22T03:39:55.395Z,79.56
2017-09-22T03:40:55.392Z,79.85
2017-09-22T03:41:55.372Z,79.94
2017-09-22T03:42:55.372Z,79.75
2017-09-22T03:43:55.348Z,79.75
2017-09-22T03:44:55.682Z,80.32
2017-09-22T03:45:55.319Z,80.13
2017-09-22T03:46:55.311Z,80.04
2017-09-22T03:47:55.298Z,80.04
2017-09-22T03:48:55.285Z,79.75
2017-09-22T03:49:55.280Z,80.04
2017-09-22T03:50:55.482Z,80.22
2017-09-22T03:51:55.251Z,79.75
2017-09-22T03:52:55.247Z,80.22
2017-09-22T03:53:55.225Z,80.32
2017-09-22T03:54:55.217Z,79.94
2017-09-22T03:55:55.207Z,79.85
2017-09-22T03:56:55.519Z,79.94
2017-09-22T03:57:55.174Z,80.04
2017-09-22T03:58:55.171Z,80.04
2017-09-22T03:59:55.162Z,79.94
2017-09-22T04:00:55.148Z,80.22
2017-09-22T04:01:55.131Z,80.13
2017-09-22T04:02:55.471Z,80.13
2017-09-22T04:03:55.107Z,80.22
2017-09-22T04:04:55.095Z,80.22
2017-09-22T04:05:55.079Z,79.94
2017-09-22T04:06:55.154Z,80.13
2017-09-22T04:07:55.056Z,80.04
2017-09-22T04:08:55.339Z,79.94
2017-09-22T04:09:55.033Z,80.04
2017-09-22T04:10:55.019Z,80.13
2017-09-22T04:11:55.013Z,80.32
2017-09-22T04:12:55.007Z,79.94
2017-09-22T04:13:54.983Z,79.94
2017-09-22T04:14:55.370Z,79.94
2017-09-22T04:15:54.961Z,79.94
2017-09-22T04:16:54.953Z,80.13
2017-09-22T04:17:54.934Z,79.75
2017-09-22T04:18:54.920Z,79.75
2017-09-22T04:19:54.914Z,79.85
2017-09-22T04:20:55.124Z,79.94
2017-09-22T04:21:54.890Z,80.13
2017-09-22T04:22:54.880Z,80.13
2017-09-22T04:23:54.861Z,79.75
2017-09-22T04:24:54.851Z,80.13
2017-09-22T04:25:54.835Z,80.04
2017-09-22T04:26:54.857Z,80.22
2017-09-22T04:27:54.811Z,80.13
2017-09-22T04:28:54.799Z,80.04
2017-09-22T04:29:54.788Z,79.94
2017-09-22T04:30:54.775Z,79.75
2017-09-22T04:31:55.199Z,79.75
2017-09-22T04:32:54.753Z,79.75
2017-09-22T04:33:54.752Z,79.75
2017-09-22T04:34:54.737Z,79.94
2017-09-22T04:35:54.717Z,80.04
2017-09-22T04:36:54.714Z,80.13
2017-09-22T04:37:54.720Z,79.80
2017-09-22T04:38:54.679Z,79.90
2017-09-22T04:39:54.664Z,79.80
2017-09-22T04:40:54.654Z,79.80
2017-09-22T04:41:54.653Z,80.09
2017-09-22T04:42:55.071Z,80.13
2017-09-22T04:43:54.615Z,79.90
2017-09-22T04:44:54.612Z,79.99
2017-09-22T04:45:54.589Z,79.99
2017-09-22T04:46:54.580Z,79.80
2017-09-22T04:47:54.570Z,79.80
2017-09-22T04:48:54.990Z,79.90
2017-09-22T04:49:54.546Z,79.80
2017-09-22T04:50:54.532Z,79.80
2017-09-22T04:51:54.524Z,79.90
2017-09-22T04:52:54.509Z,79.90
2017-09-22T04:53:54.494Z,79.90
2017-09-22T04:54:54.919Z,79.80
2017-09-22T04:55:54.469Z,79.80
2017-09-22T04:56:54.471Z,79.99
2017-09-22T04:57:54.448Z,79.90
2017-09-22T04:58:54.432Z,79.99
2017-09-22T04:59:54.435Z,79.99
2017-09-22T05:00:54.712Z,80.09
2017-09-22T05:01:54.394Z,79.90
2017-09-22T05:02:54.388Z,79.90
2017-09-22T05:03:54.383Z,79.43
2017-09-22T05:04:54.357Z,79.71
2017-09-22T05:05:54.359Z,79.71
2017-09-22T05:06:54.687Z,79.99
2017-09-22T05:07:54.324Z,79.90
2017-09-22T05:08:54.311Z,79.90
2017-09-22T05:09:54.301Z,79.99
2017-09-22T05:10:54.284Z,79.61
2017-09-22T05:11:54.274Z,80.28
2017-09-22T05:12:54.642Z,79.99
2017-09-22T05:13:54.248Z,79.90
2017-09-22T05:14:54.238Z,79.61
2017-09-22T05:15:54.223Z,79.80
2017-09-22T05:16:54.212Z,80.47
2017-09-22T05:17:54.198Z,80.09
2017-09-22T05:18:54.261Z,80.09
2017-09-22T05:19:54.177Z,79.90
2017-09-22T05:20:54.161Z,79.61
2017-09-22T05:21:54.151Z,80.28
2017-09-22T05:22:54.134Z,79.99
2017-09-22T05:23:54.134Z,79.80
2017-09-22T05:24:54.456Z,79.80
2017-09-22T05:25:54.095Z,80.38
2017-09-22T05:26:54.087Z,80.38
2017-09-22T05:27:54.074Z,79.71
2017-09-22T05:28:54.070Z,79.71
2017-09-22T05:29:54.046Z,79.71
2017-09-22T05:30:54.073Z,79.61
2017-09-22T05:31:54.021Z,79.61
2017-09-22T05:32:54.012Z,80.09
2017-09-22T05:33:54.262Z,79.61
2017-09-22T05:34:53.986Z,79.90
2017-09-22T05:35:53.988Z,79.90
2017-09-22T05:36:53.970Z,79.99
2017-09-22T05:37:53.948Z,80.09
2017-09-22T05:38:53.948Z,80.09
2017-09-22T05:39:54.261Z,80.28
2017-09-22T05:40:53.915Z,79.90
2017-09-22T05:41:53.902Z,79.80
2017-09-22T05:42:53.887Z,80.09
2017-09-22T05:43:53.882Z,79.99
2017-09-22T05:44:53.861Z,79.99
2017-09-22T05:45:54.073Z,79.90
2017-09-22T05:46:53.848Z,79.99
2017-09-22T05:47:53.821Z,79.99
2017-09-22T05:48:53.812Z,80.09
2017-09-22T05:49:53.800Z,79.99
2017-09-22T05:50:53.795Z,79.99
2017-09-22T05:51:54.204Z,79.99
2017-09-22T05:52:53.768Z,79.99
2017-09-22T05:53:53.749Z,80.28
2017-09-22T05:54:53.747Z,80.09
2017-09-22T05:55:53.727Z,80.19
2017-09-22T05:56:53.712Z,79.99
2017-09-22T05:57:54.096Z,80.09
2017-09-22T05:58:53.685Z,79.71
2017-09-22T05:59:53.677Z,80.19
2017-09-22T06:00:53.663Z,80.09
2017-09-22T06:01:53.649Z,79.90
2017-09-22T06:02:53.640Z,79.99
2017-09-22T06:03:53.943Z,80.09
2017-09-22T06:04:53.616Z,79.99
2017-09-22T06:05:53.600Z,80.09
2017-09-22T06:06:53.595Z,80.09
2017-09-22T06:07:53.577Z,80.28
2017-09-22T06:08:53.568Z,80.19
2017-09-22T06:09:53.902Z,79.99
2017-09-22T06:10:53.553Z,80.09
2017-09-22T06:11:53.527Z,80.28
2017-09-22T06:12:53.517Z,80.04
2017-09-22T06:13:53.500Z,80.09
2017-09-22T06:14:53.495Z,80.09
2017-09-22T06:15:53.772Z,79.90
2017-09-22T06:16:53.477Z,79.71
2017-09-22T06:17:53.456Z,79.61
2017-09-22T06:18:53.467Z,79.71
2017-09-22T06:19:53.438Z,79.71
2017-09-22T06:20:53.451Z,80.09
2017-09-22T06:21:53.758Z,80.09
2017-09-22T06:22:53.408Z,79.52
2017-09-22T06:23:53.388Z,79.52
2017-09-22T06:24:53.368Z,80.04
2017-09-22T06:25:53.356Z,79.80
2017-09-22T06:26:53.350Z,80.09
2017-09-22T06:27:53.754Z,80.09
2017-09-22T06:28:53.321Z,79.71
2017-09-22T06:29:53.307Z,80.19
2017-09-22T06:30:53.298Z,79.90
2017-09-22T06:31:53.280Z,79.90
2017-09-22T06:32:53.271Z,79.94
2017-09-22T06:33:53.678Z,80.09
2017-09-22T06:34:53.245Z,79.75
2017-09-22T06:35:53.249Z,79.85
2017-09-22T06:36:53.220Z,80.04
2017-09-22T06:37:53.215Z,80.04
2017-09-22T06:38:53.202Z,79.85
2017-09-22T06:39:53.558Z,79.94
2017-09-22T06:40:53.173Z,79.75
2017-09-22T06:41:53.165Z,80.19
2017-09-22T06:42:53.148Z,79.71
2017-09-22T06:43:53.136Z,80.09
2017-09-22T06:44:53.125Z,80.09
2017-09-22T06:45:53.153Z,79.99
2017-09-22T06:46:53.102Z,79.90
2017-09-22T06:47:53.088Z,79.80
2017-09-22T06:48:53.085Z,79.71
2017-09-22T06:49:53.416Z,80.19
2017-09-22T06:50:53.167Z,80.19
2017-09-22T06:51:53.143Z,80.38
2017-09-22T06:52:53.604Z,80.19
2017-09-22T06:53:53.852Z,80.85
2017-09-22T06:54:53.505Z,80.95
2017-09-22T06:55:53.284Z,80.66
2017-09-22T06:56:52.978Z,80.76
2017-09-22T06:57:52.969Z,80.76
2017-09-22T06:58:52.954Z,80.95
2017-09-22T06:59:52.943Z,80.85
2017-09-22T07:00:52.927Z,80.95
2017-09-22T07:01:53.138Z,80.47
2017-09-22T07:02:52.926Z,80.76
2017-09-22T07:03:52.905Z,80.76
2017-09-22T07:04:52.882Z,80.66
2017-09-22T07:05:52.866Z,80.76
2017-09-22T07:06:52.857Z,80.90
2017-09-22T07:07:53.247Z,80.66
2017-09-22T07:08:52.831Z,80.80
2017-09-22T07:09:52.821Z,80.99
2017-09-22T07:10:52.808Z,80.51
2017-09-22T07:11:52.800Z,80.61
2017-09-22T07:12:52.792Z,80.61
2017-09-22T07:13:52.801Z,80.80
2017-09-22T07:14:52.773Z,81.09
2017-09-22T07:15:52.752Z,81.09
2017-09-22T07:16:52.739Z,81.09
2017-09-22T07:17:52.760Z,80.99
2017-09-22T07:18:52.731Z,80.99
2017-09-22T07:19:52.703Z,80.90
2017-09-22T07:20:52.693Z,80.90
2017-09-22T07:21:52.683Z,80.90
2017-09-22T07:22:52.990Z,80.70
2017-09-22T07:23:52.655Z,80.90
2017-09-22T07:24:52.642Z,80.90
2017-09-22T07:25:52.627Z,80.51
2017-09-22T07:26:52.618Z,80.22
2017-09-22T07:27:52.603Z,80.41
2017-09-22T07:28:52.946Z,80.22
2017-09-22T07:29:52.584Z,79.94
2017-09-22T07:30:52.571Z,80.13
2017-09-22T07:31:52.560Z,80.32
2017-09-22T07:32:52.548Z,79.88
2017-09-22T07:33:52.536Z,79.94
2017-09-22T07:34:52.554Z,79.94
2017-09-22T07:35:52.524Z,80.17
2017-09-22T07:36:52.501Z,80.17
2017-09-22T07:37:52.703Z,80.17
2017-09-22T07:38:52.476Z,80.07
2017-09-22T07:39:52.466Z,80.07
2017-09-22T07:40:52.464Z,79.94
2017-09-22T07:41:52.443Z,80.46
2017-09-22T07:42:52.429Z,80.17
2017-09-22T07:43:52.727Z,80.36
2017-09-22T07:44:52.407Z,80.17
2017-09-22T07:45:52.405Z,80.17
2017-09-22T07:46:52.384Z,80.17
2017-09-22T07:47:52.371Z,79.79
2017-09-22T07:48:52.361Z,79.79
2017-09-22T07:49:52.641Z,80.07
2017-09-22T07:50:52.340Z,79.98
2017-09-22T07:51:52.330Z,80.17
2017-09-22T07:52:52.663Z,80.17
2017-09-22T07:53:53.128Z,80.07
2017-09-22T07:54:52.801Z,80.07
2017-09-22T07:55:52.308Z,79.88
2017-09-22T07:56:52.287Z,80.27
2017-09-22T07:57:52.253Z,79.88
2017-09-22T07:58:52.245Z,79.98
2017-09-22T07:59:52.658Z,80.36
2017-09-22T08:00:52.225Z,80.36
2017-09-22T08:01:52.208Z,80.36
2017-09-22T08:02:52.207Z,80.17
2017-09-22T08:03:52.185Z,79.69
2017-09-22T08:04:52.173Z,79.98
2017-09-22T08:05:52.194Z,80.07
2017-09-22T08:06:52.155Z,79.88
2017-09-22T08:07:52.138Z,79.88
2017-09-22T08:08:52.151Z,79.69
2017-09-22T08:09:52.116Z,79.79
2017-09-22T08:10:52.134Z,80.46
2017-09-22T08:11:52.105Z,80.17
2017-09-22T08:12:52.091Z,80.17
2017-09-22T08:13:52.073Z,80.17
2017-09-22T08:14:52.057Z,80.17
2017-09-22T08:15:52.071Z,79.98
2017-09-22T08:16:52.040Z,79.98
2017-09-22T08:17:52.028Z,79.88
2017-09-22T08:18:52.017Z,79.88
2017-09-22T08:19:51.998Z,79.79
2017-09-22T08:20:52.297Z,79.98
2017-09-22T08:21:51.980Z,80.46
2017-09-22T08:22:51.971Z,79.79
2017-09-22T08:23:51.952Z,79.88
2017-09-22T08:24:51.947Z,79.88
2017-09-22T08:25:51.937Z,79.79
2017-09-22T08:26:52.375Z,79.88
2017-09-22T08:27:51.908Z,79.79
2017-09-22T08:28:51.903Z,79.69
2017-09-22T08:29:51.886Z,79.98
2017-09-22T08:30:51.890Z,79.98
2017-09-22T08:31:51.867Z,80.17
2017-09-22T08:32:52.229Z,80.07
2017-09-22T08:33:51.859Z,80.17
2017-09-22T08:34:51.828Z,79.88
2017-09-22T08:35:51.828Z,80.07
2017-09-22T08:36:51.809Z,80.07
2017-09-22T08:37:51.805Z,80.07
2017-09-22T08:38:52.216Z,80.07
2017-09-22T08:39:51.773Z,79.98
2017-09-22T08:40:51.775Z,79.83
2017-09-22T08:41:51.752Z,79.69
2017-09-22T08:42:51.744Z,80.17
2017-09-22T08:43:51.728Z,79.79
2017-09-22T08:44:51.766Z,79.98
2017-09-22T08:45:51.706Z,79.88
2017-09-22T08:46:51.940Z,79.50
2017-09-22T08:47:51.688Z,79.93
2017-09-22T08:48:51.671Z,80.11
2017-09-22T08:49:51.661Z,80.02
2017-09-22T08:50:51.651Z,79.54
2017-09-22T08:51:51.639Z,79.44
2017-09-22T08:52:51.975Z,79.54
2017-09-22T08:53:51.623Z,79.73
2017-09-22T08:54:51.602Z,79.64
2017-09-22T08:55:51.602Z,79.64
2017-09-22T08:56:51.582Z,79.64
2017-09-22T08:57:51.578Z,79.83
2017-09-22T08:58:51.911Z,79.25
2017-09-22T08:59:51.544Z,79.83
2017-09-22T09:00:51.548Z,79.83
2017-09-22T09:01:51.528Z,79.64
2017-09-22T09:02:51.522Z,79.35
2017-09-22T09:03:51.499Z,79.25
2017-09-22T09:04:51.938Z,79.25
2017-09-22T09:05:51.476Z,79.35
2017-09-22T09:06:51.466Z,79.44
2017-09-22T09:07:51.467Z,79.35
2017-09-22T09:08:51.445Z,79.25
2017-09-22T09:09:51.433Z,79.25
2017-09-22T09:10:51.813Z,79.16
2017-09-22T09:11:51.416Z,79.44
2017-09-22T09:12:51.405Z,79.25
2017-09-22T09:13:51.390Z,79.25
2017-09-22T09:14:51.380Z,79.25
2017-09-22T09:15:51.368Z,79.25
2017-09-22T09:16:51.890Z,79.16
2017-09-22T09:17:51.344Z,79.35
2017-09-22T09:18:51.333Z,79.25
2017-09-22T09:19:51.448Z,79.64
2017-09-22T09:20:51.313Z,80.11
2017-09-22T09:21:51.300Z,80.30
2017-09-22T09:22:51.323Z,79.83
2017-09-22T09:23:51.284Z,80.21
2017-09-22T09:24:51.272Z,79.93
2017-09-22T09:25:51.262Z,79.64
2017-09-22T09:26:51.246Z,79.64
2017-09-22T09:27:51.243Z,79.35
2017-09-22T09:28:51.255Z,79.54
2017-09-22T09:29:51.221Z,79.44
2017-09-22T09:30:51.203Z,79.16
2017-09-22T09:31:51.191Z,79.25
2017-09-22T09:32:51.612Z,79.25
2017-09-22T09:33:51.165Z,79.25
2017-09-22T09:34:51.159Z,79.39
2017-09-22T09:35:51.147Z,79.29
2017-09-22T09:36:51.137Z,79.49
2017-09-22T09:37:51.133Z,79.49
2017-09-22T09:38:51.322Z,79.39
2017-09-22T09:39:51.141Z,79.58
2017-09-22T09:40:51.096Z,79.49
2017-09-22T09:41:51.083Z,79.49
2017-09-22T09:42:51.068Z,78.91
2017-09-22T09:43:51.061Z,78.91
2017-09-22T09:44:51.269Z,79.10
2017-09-22T09:45:51.041Z,78.91
2017-09-22T09:46:51.039Z,78.91
2017-09-22T09:47:51.015Z,78.91
2017-09-22T09:48:51.009Z,79.00
2017-09-22T09:49:50.995Z,78.91
2017-09-22T09:50:51.364Z,79.10
2017-09-22T09:51:50.969Z,79.20
2017-09-22T09:52:50.965Z,79.00
2017-09-22T09:53:50.950Z,79.10
2017-09-22T09:54:50.943Z,79.10
2017-09-22T09:55:50.926Z,78.91
2017-09-22T09:56:50.962Z,79.10
2017-09-22T09:57:50.916Z,78.91
2017-09-22T09:58:50.902Z,78.53
2017-09-22T09:59:50.884Z,79.00
2017-09-22T10:00:50.879Z,78.91
2017-09-22T10:01:50.897Z,79.20
2017-09-22T10:02:50.863Z,79.00
2017-09-22T10:03:50.871Z,78.91
2017-09-22T10:04:50.842Z,79.39
2017-09-22T10:05:50.823Z,78.91
2017-09-22T10:06:50.820Z,79.00
2017-09-22T10:07:50.800Z,79.39
2017-09-22T10:08:51.089Z,79.39
2017-09-22T10:09:50.779Z,79.20
2017-09-22T10:10:50.776Z,79.49
2017-09-22T10:11:50.757Z,79.49
2017-09-22T10:12:50.757Z,79.49
2017-09-22T10:13:50.736Z,79.10
2017-09-22T10:14:51.169Z,79.39
2017-09-22T10:15:50.720Z,79.29
2017-09-22T10:16:50.706Z,79.49
2017-09-22T10:17:50.704Z,79.58
2017-09-22T10:18:50.690Z,79.39
2017-09-22T10:19:50.683Z,79.49
2017-09-22T10:20:50.950Z,79.29
2017-09-22T10:21:50.653Z,79.39
2017-09-22T10:22:50.641Z,79.39
2017-09-22T10:23:50.633Z,79.29
2017-09-22T10:24:50.618Z,79.49
2017-09-22T10:25:50.615Z,79.49
2017-09-22T10:26:51.027Z,79.58
2017-09-22T10:27:50.596Z,79.68
2017-09-22T10:28:50.575Z,79.33
2017-09-22T10:29:50.564Z,78.91
2017-09-22T10:30:50.556Z,79.24
2017-09-22T10:31:50.552Z,79.14
2017-09-22T10:32:50.564Z,79.05
2017-09-22T10:33:50.526Z,79.05
2017-09-22T10:34:50.514Z,78.57
2017-09-22T10:35:50.511Z,78.86
2017-09-22T10:36:50.885Z,78.86
2017-09-22T10:37:50.488Z,78.86
2017-09-22T10:38:50.474Z,78.76
2017-09-22T10:39:50.464Z,78.76
2017-09-22T10:40:50.465Z,78.66
2017-09-22T10:41:50.442Z,78.66
2017-09-22T10:42:50.480Z,78.76
2017-09-22T10:43:50.429Z,78.47
2017-09-22T10:44:50.415Z,78.47
2017-09-22T10:45:50.404Z,78.57
2017-09-22T10:46:50.398Z,78.38
2017-09-22T10:47:50.754Z,78.86
2017-09-22T10:48:50.374Z,78.66
2017-09-22T10:49:50.360Z,78.86
2017-09-22T10:50:50.358Z,79.14
2017-09-22T10:51:50.345Z,79.52
2017-09-22T10:52:50.342Z,79.08
2017-09-22T10:53:50.643Z,79.18
2017-09-22T10:54:50.322Z,79.18
2017-09-22T10:55:50.299Z,79.18
2017-09-22T10:56:50.294Z,78.51
2017-09-22T10:57:50.286Z,78.80
2017-09-22T10:58:50.273Z,78.89
2017-09-22T10:59:50.645Z,78.80
2017-09-22T11:00:50.254Z,78.80
2017-09-22T11:01:50.245Z,78.42
2017-09-22T11:02:50.247Z,78.51
2017-09-22T11:03:50.223Z,78.51
2017-09-22T11:04:50.223Z,78.51
2017-09-22T11:05:50.240Z,78.51
2017-09-22T11:06:50.198Z,78.51
2017-09-22T11:07:50.184Z,78.51
2017-09-22T11:08:50.174Z,78.13
2017-09-22T11:09:50.488Z,78.13
2017-09-22T11:10:50.153Z,78.03
2017-09-22T11:11:50.146Z,78.03
2017-09-22T11:12:50.132Z,78.03
2017-09-22T11:13:50.122Z,77.94
2017-09-22T11:14:50.113Z,78.13
2017-09-22T11:15:50.359Z,78.13
2017-09-22T11:16:50.098Z,78.22
2017-09-22T11:17:50.092Z,76.60
2017-09-22T11:18:50.087Z,75.73
2017-09-22T11:19:50.069Z,76.60
2017-09-22T11:20:50.058Z,77.11
2017-09-22T11:21:50.360Z,76.92
2017-09-22T11:22:50.034Z,76.92
2017-09-22T11:23:50.032Z,76.92
2017-09-22T11:24:50.018Z,77.11
2017-09-22T11:25:50.013Z,77.02
2017-09-22T11:26:49.997Z,76.92
2017-09-22T11:27:50.408Z,77.02
2017-09-22T11:28:49.979Z,76.82
2017-09-22T11:29:49.974Z,76.15
2017-09-22T11:30:49.968Z,75.29
2017-09-22T11:31:49.950Z,76.35
2017-09-22T11:32:49.947Z,76.25
2017-09-22T11:33:50.224Z,76.06
2017-09-22T11:34:49.975Z,76.25
2017-09-22T11:35:49.913Z,76.44
2017-09-22T11:36:49.910Z,75.39
2017-09-22T11:37:49.892Z,76.25
2017-09-22T11:38:49.884Z,76.25
2017-09-22T11:39:50.216Z,76.15
2017-09-22T11:40:49.872Z,75.77
2017-09-22T11:41:49.870Z,76.54
2017-09-22T11:42:49.843Z,76.67
2017-09-22T11:43:49.844Z,76.54
2017-09-22T11:44:49.832Z,76.19
2017-09-22T11:45:50.053Z,75.81
2017-09-22T11:46:49.812Z,75.81
2017-09-22T11:47:49.804Z,76.00
2017-09-22T11:48:49.796Z,76.00
2017-09-22T11:49:49.782Z,75.23
2017-09-22T11:50:49.793Z,75.14
2017-09-22T11:51:49.796Z,76.00
2017-09-22T11:52:49.755Z,75.52
2017-09-22T11:53:49.742Z,75.81
2017-09-22T11:54:50.100Z,75.52
2017-09-22T11:55:49.731Z,75.23
2017-09-22T11:56:49.724Z,75.52
2017-09-22T11:57:49.727Z,75.23
2017-09-22T11:58:49.701Z,75.23
2017-09-22T11:59:49.706Z,75.62
2017-09-22T12:00:50.102Z,75.62
2017-09-22T12:01:49.681Z,74.47
2017-09-22T12:02:49.663Z,73.80
2017-09-22T12:03:49.659Z,70.73
2017-09-22T12:04:49.650Z,70.25
2017-09-22T12:05:49.644Z,69.62
2017-09-22T12:06:49.970Z,67.79
2017-09-22T12:07:49.621Z,68.46
2017-09-22T12:08:49.618Z,69.62
2017-09-22T12:09:49.603Z,70.29
2017-09-22T12:10:49.593Z,70.67
2017-09-22T12:11:49.588Z,70.57
2017-09-22T12:12:49.880Z,71.05
2017-09-22T12:13:49.568Z,71.25
2017-09-22T12:14:49.563Z,71.15
2017-09-22T12:15:49.551Z,69.13
2017-09-22T12:16:49.547Z,67.99
2017-09-22T12:17:49.531Z,69.04
2017-09-22T12:18:49.866Z,69.71
2017-09-22T12:19:49.513Z,70.86
2017-09-22T12:20:49.505Z,71.15
2017-09-22T12:21:49.495Z,71.34
2017-09-22T12:22:49.484Z,71.72
2017-09-22T12:23:49.482Z,71.72
2017-09-22T12:24:49.824Z,70.67
2017-09-22T12:25:49.480Z,68.95
2017-09-22T12:26:49.454Z,69.52
2017-09-22T12:27:49.455Z,69.62
2017-09-22T12:28:49.435Z,70.67
2017-09-22T12:29:49.421Z,70.76
2017-09-22T12:30:49.774Z,70.80
2017-09-22T12:31:49.408Z,70.67
2017-09-22T12:32:49.404Z,70.76
2017-09-22T12:33:49.396Z,70.80
2017-09-22T12:34:49.384Z,69.07
2017-09-22T12:35:49.372Z,69.26
2017-09-22T12:36:49.671Z,69.74
2017-09-22T12:37:49.358Z,68.59
2017-09-22T12:38:49.357Z,67.83
2017-09-22T12:39:49.340Z,66.58
2017-09-22T12:40:49.328Z,66.77
2017-09-22T12:41:49.320Z,66.86
2017-09-22T12:42:49.343Z,64.56
2017-09-22T12:43:49.300Z,65.72
2017-09-22T12:44:49.300Z,65.52
2017-09-22T12:45:49.295Z,66.67
2017-09-22T12:46:49.691Z,66.58
2017-09-22T12:47:49.268Z,63.42
2017-09-22T12:48:49.257Z,63.03
2017-09-22T12:49:49.262Z,63.25
2017-09-22T12:50:49.251Z,63.51
2017-09-22T12:51:49.253Z,64.76
2017-09-22T12:52:49.261Z,64.56